Whitfield, Mississippi
Current Conditions -  °F | °C
As of 2:54 PM on Saturday 20 Dec 2014 (Local Time) from KJAN Reporting Station
Few Clouds Few Clouds  
Wind Chill: 57°   Ceiling: Unl
Heat Index: 57°   Visibility: 10mi
Dew Point: 42°   Wind: 9mph
Humidity: 57%   Direction: 10°N
Pressure: 30.15"   Gusts: NA
Location:  32.24°N, 90.07°W
Report Text: KJAN 202054Z 01008KT 10SM FEW025 14/06 A3015 RMK AO2 SLP210 T01390056 56016
Loading
Personal Weather Stations






























Interactive Weather Map New forecast layout! Learn more

10-Day Weather Forecast

Advertisements
Track Severe Weather on mobile